createdAt,value
2019-03-22T00:00:40.639Z,89.60
2019-03-22T00:01:41.150Z,89.60
2019-03-22T00:02:40.669Z,88.98
2019-03-22T00:03:40.592Z,89.39
2019-03-22T00:04:40.583Z,89.08
2019-03-22T00:05:40.619Z,88.87
2019-03-22T00:06:40.575Z,89.60
2019-03-22T00:07:40.550Z,89.81
2019-03-22T00:08:40.538Z,89.39
2019-03-22T00:09:40.527Z,89.81
2019-03-22T00:10:40.526Z,89.81
2019-03-22T00:11:40.522Z,89.60
2019-03-22T00:12:40.505Z,89.70
2019-03-22T00:13:40.477Z,90.12
2019-03-22T00:14:40.471Z,89.81
2019-03-22T00:15:40.456Z,89.91
2019-03-22T00:16:40.470Z,89.08
2019-03-22T00:17:40.489Z,89.08
2019-03-22T00:18:40.438Z,89.08
2019-03-22T00:19:40.406Z,89.08
2019-03-22T00:20:40.403Z,89.08
2019-03-22T00:21:40.389Z,89.50
2019-03-22T00:22:40.417Z,89.60
2019-03-22T00:23:40.369Z,89.60
2019-03-22T00:24:40.379Z,89.50
2019-03-22T00:25:40.339Z,89.39
2019-03-22T00:26:40.327Z,89.18
2019-03-22T00:27:40.321Z,89.08
2019-03-22T00:28:40.330Z,89.08
2019-03-22T00:29:40.293Z,89.50
2019-03-22T00:30:40.309Z,89.70
2019-03-22T00:31:40.268Z,89.18
2019-03-22T00:32:40.263Z,89.18
2019-03-22T00:33:40.253Z,89.01
2019-03-22T00:34:40.260Z,88.98
2019-03-22T00:35:40.225Z,89.32
2019-03-22T00:36:40.222Z,88.98
2019-03-22T00:37:40.203Z,89.22
2019-03-22T00:38:40.193Z,89.18
2019-03-22T00:39:40.179Z,88.91
2019-03-22T00:40:40.207Z,89.43
2019-03-22T00:41:40.167Z,89.64
2019-03-22T00:42:40.147Z,89.39
2019-03-22T00:43:40.136Z,89.64
2019-03-22T00:44:40.126Z,89.64
2019-03-22T00:45:40.113Z,89.81
2019-03-22T00:46:40.136Z,90.16
2019-03-22T00:47:40.096Z,90.12
2019-03-22T00:48:40.087Z,89.70
2019-03-22T00:49:40.070Z,89.60
2019-03-22T00:50:40.065Z,89.60
2019-03-22T00:51:40.040Z,89.12
2019-03-22T00:52:40.051Z,89.60
2019-03-22T00:53:40.020Z,89.81
2019-03-22T00:54:40.026Z,89.12
2019-03-22T00:55:40.007Z,89.85
2019-03-22T00:56:39.983Z,89.75
2019-03-22T00:57:39.975Z,90.85
2019-03-22T00:58:40.010Z,90.68
2019-03-22T00:59:39.955Z,91.06
2019-03-22T01:00:39.940Z,90.89
2019-03-22T01:01:39.929Z,90.68
2019-03-22T01:02:39.921Z,90.68
2019-03-22T01:03:39.907Z,91.00
2019-03-22T01:04:39.916Z,90.06
2019-03-22T01:05:39.893Z,90.16
2019-03-22T01:06:39.889Z,90.47
2019-03-22T01:07:39.972Z,90.58
2019-03-22T01:08:39.856Z,91.00
2019-03-22T01:09:39.840Z,90.16
2019-03-22T01:10:39.860Z,89.89
2019-03-22T01:11:39.818Z,89.95
2019-03-22T01:12:39.822Z,90.20
2019-03-22T01:13:39.791Z,89.78
2019-03-22T01:14:39.785Z,89.78
2019-03-22T01:15:39.769Z,90.31
2019-03-22T01:16:39.769Z,90.20
2019-03-22T01:17:39.746Z,90.10
2019-03-22T01:18:39.741Z,91.04
2019-03-22T01:19:39.731Z,90.93
2019-03-22T01:20:39.718Z,90.62
2019-03-22T01:21:39.721Z,90.72
2019-03-22T01:22:39.692Z,90.72
2019-03-22T01:23:39.685Z,90.72
2019-03-22T01:24:39.683Z,91.14
2019-03-22T01:25:39.652Z,90.20
2019-03-22T01:26:39.653Z,89.78
2019-03-22T01:27:41.028Z,89.78
2019-03-22T01:28:39.626Z,89.89
2019-03-22T01:29:39.604Z,90.00
2019-03-22T01:30:39.614Z,90.10
2019-03-22T01:31:39.607Z,90.72
2019-03-22T01:32:39.575Z,90.93
2019-03-22T01:33:40.644Z,91.04
2019-03-22T01:34:39.551Z,91.04
2019-03-22T01:35:39.542Z,90.97
2019-03-22T01:36:39.541Z,90.62
2019-03-22T01:37:39.521Z,90.93
2019-03-22T01:38:39.510Z,90.72
2019-03-22T01:39:39.518Z,90.93
2019-03-22T01:40:39.487Z,90.52
2019-03-22T01:41:39.492Z,90.72
2019-03-22T01:42:39.483Z,90.83
2019-03-22T01:43:39.450Z,90.62
2019-03-22T01:44:39.445Z,90.87
2019-03-22T01:45:39.442Z,90.83
2019-03-22T01:46:39.416Z,90.72
2019-03-22T01:47:39.404Z,90.83
2019-03-22T01:48:39.410Z,91.14
2019-03-22T01:49:39.386Z,90.62
2019-03-22T01:50:39.374Z,90.72
2019-03-22T01:51:39.401Z,90.10
2019-03-22T01:52:39.356Z,90.25
2019-03-22T01:53:39.348Z,90.14
2019-03-22T01:54:39.337Z,90.03
2019-03-22T01:55:39.315Z,90.03
2019-03-22T01:56:39.304Z,90.03
2019-03-22T01:57:39.315Z,91.08
2019-03-22T01:58:39.282Z,90.97
2019-03-22T01:59:39.268Z,90.45
2019-03-22T02:00:39.271Z,91.71
2019-03-22T02:01:39.240Z,91.60
2019-03-22T02:02:39.237Z,91.39
2019-03-22T02:03:39.254Z,91.60
2019-03-22T02:04:39.215Z,91.71
2019-03-22T02:05:39.202Z,91.39
2019-03-22T02:06:39.194Z,91.04
2019-03-22T02:07:39.180Z,90.45
2019-03-22T02:08:39.164Z,91.29
2019-03-22T02:10:00.232Z,91.08
2019-03-22T02:10:39.147Z,91.08
2019-03-22T02:11:39.136Z,91.08
2019-03-22T02:12:39.117Z,90.45
2019-03-22T02:13:39.105Z,90.87
2019-03-22T02:14:39.099Z,90.97
2019-03-22T02:15:39.107Z,91.18
2019-03-22T02:16:39.074Z,90.87
2019-03-22T02:17:39.069Z,91.81
2019-03-22T02:18:39.056Z,91.71
2019-03-22T02:19:39.039Z,92.22
2019-03-22T02:20:39.029Z,91.91
2019-03-22T02:21:39.036Z,92.22
2019-03-22T02:22:39.009Z,92.33
2019-03-22T02:23:39.007Z,92.22
2019-03-22T02:24:38.980Z,92.33
2019-03-22T02:25:38.985Z,92.75
2019-03-22T02:26:38.965Z,91.81
2019-03-22T02:27:38.985Z,91.71
2019-03-22T02:28:38.931Z,91.91
2019-03-22T02:29:38.930Z,91.60
2019-03-22T02:30:38.920Z,91.60
2019-03-22T02:31:38.934Z,91.50
2019-03-22T02:32:38.898Z,91.60
2019-03-22T02:33:38.896Z,91.60
2019-03-22T02:34:38.873Z,91.50
2019-03-22T02:35:38.993Z,91.71
2019-03-22T02:36:38.879Z,91.60
2019-03-22T02:37:38.832Z,91.39
2019-03-22T02:38:38.845Z,91.91
2019-03-22T02:39:38.927Z,90.56
2019-03-22T02:40:38.799Z,91.12
2019-03-22T02:41:38.805Z,91.33
2019-03-22T02:42:38.784Z,91.12
2019-03-22T02:43:38.765Z,91.33
2019-03-22T02:44:38.789Z,91.85
2019-03-22T02:45:38.750Z,91.81
2019-03-22T02:46:38.737Z,91.75
2019-03-22T02:47:38.731Z,91.75
2019-03-22T02:48:38.710Z,91.85
2019-03-22T02:49:38.692Z,91.85
2019-03-22T02:50:38.719Z,91.81
2019-03-22T02:51:38.683Z,91.71
2019-03-22T02:52:38.663Z,91.71
2019-03-22T02:53:38.665Z,91.39
2019-03-22T02:54:38.671Z,91.85
2019-03-22T02:55:38.633Z,91.50
2019-03-22T02:56:38.633Z,91.81
2019-03-22T02:57:38.612Z,91.50
2019-03-22T02:58:38.599Z,91.96
2019-03-22T02:59:38.592Z,91.96
2019-03-22T03:00:38.568Z,91.85
2019-03-22T03:01:38.560Z,91.64
2019-03-22T03:02:38.595Z,91.75
2019-03-22T03:03:38.544Z,91.75
2019-03-22T03:04:38.530Z,91.02
2019-03-22T03:05:38.535Z,91.12
2019-03-22T03:06:38.507Z,91.22
2019-03-22T03:07:38.496Z,91.02
2019-03-22T03:08:38.499Z,90.70
2019-03-22T03:09:38.470Z,90.56
2019-03-22T03:10:38.472Z,90.60
2019-03-22T03:11:38.460Z,90.39
2019-03-22T03:12:38.441Z,91.33
2019-03-22T03:13:38.424Z,91.85
2019-03-22T03:14:38.435Z,91.75
2019-03-22T03:15:38.402Z,92.27
2019-03-22T03:16:38.395Z,92.27
2019-03-22T03:17:38.389Z,92.37
2019-03-22T03:18:38.375Z,91.96
2019-03-22T03:19:38.359Z,92.16
2019-03-22T03:20:38.390Z,92.37
2019-03-22T03:21:38.334Z,92.37
2019-03-22T03:22:38.328Z,92.37
2019-03-22T03:23:38.334Z,92.47
2019-03-22T03:24:38.349Z,91.85
2019-03-22T03:25:38.291Z,91.33
2019-03-22T03:26:38.314Z,91.85
2019-03-22T03:27:38.270Z,91.96
2019-03-22T03:28:38.267Z,91.96
2019-03-22T03:29:38.253Z,91.75
2019-03-22T03:30:38.252Z,91.85
2019-03-22T03:31:38.369Z,91.75
2019-03-22T03:32:38.237Z,91.85
2019-03-22T03:33:38.212Z,91.85
2019-03-22T03:34:38.197Z,91.85
2019-03-22T03:35:38.183Z,91.96
2019-03-22T03:36:38.179Z,91.75
2019-03-22T03:37:38.158Z,91.75
2019-03-22T03:38:38.204Z,91.96
2019-03-22T03:39:38.136Z,91.75
2019-03-22T03:40:38.127Z,91.75
2019-03-22T03:41:38.127Z,91.96
2019-03-22T03:42:38.104Z,91.75
2019-03-22T03:43:38.098Z,91.22
2019-03-22T03:44:38.095Z,91.27
2019-03-22T03:45:38.075Z,91.02
2019-03-22T03:46:38.055Z,91.22
2019-03-22T03:47:38.062Z,91.69
2019-03-22T03:48:38.040Z,91.69
2019-03-22T03:49:38.054Z,91.75
2019-03-22T03:50:38.015Z,91.85
2019-03-22T03:51:38.009Z,92.06
2019-03-22T03:52:39.591Z,92.47
2019-03-22T03:53:38.009Z,92.41
2019-03-22T03:54:37.972Z,92.37
2019-03-22T03:55:38.006Z,92.21
2019-03-22T03:56:37.957Z,92.16
2019-03-22T03:57:37.944Z,92.16
2019-03-22T03:58:51.632Z,91.96
2019-03-22T03:59:38.930Z,92.37
2019-03-22T04:00:37.901Z,92.47
2019-03-22T04:01:37.924Z,92.16
2019-03-22T04:02:37.878Z,92.52
2019-03-22T04:03:37.871Z,91.75
2019-03-22T04:04:37.858Z,91.89
2019-03-22T04:05:37.881Z,92.52
2019-03-22T04:06:38.681Z,92.63
2019-03-22T04:07:37.844Z,92.63
2019-03-22T04:08:37.809Z,92.63
2019-03-22T04:09:37.804Z,92.79
2019-03-22T04:10:37.806Z,92.52
2019-03-22T04:11:37.789Z,92.31
2019-03-22T04:12:37.767Z,91.79
2019-03-22T04:13:37.794Z,91.69
2019-03-22T04:14:37.749Z,92.63
2019-03-22T04:15:37.743Z,92.41
2019-03-22T04:16:37.727Z,92.27
2019-03-22T04:17:37.730Z,92.16
2019-03-22T04:18:38.641Z,92.41
2019-03-22T04:19:37.727Z,92.83
2019-03-22T04:20:37.688Z,92.83
2019-03-22T04:21:37.665Z,92.21
2019-03-22T04:22:37.676Z,92.31
2019-03-22T04:23:37.647Z,92.63
2019-03-22T04:24:37.637Z,92.41
2019-03-22T04:25:37.643Z,92.41
2019-03-22T04:26:37.613Z,92.52
2019-03-22T04:27:37.612Z,92.31
2019-03-22T04:28:37.599Z,92.21
2019-03-22T04:29:37.583Z,92.63
2019-03-22T04:30:37.571Z,92.63
2019-03-22T04:31:37.602Z,92.21
2019-03-22T04:32:37.549Z,92.31
2019-03-22T04:33:37.537Z,92.83
2019-03-22T04:34:37.536Z,92.63
2019-03-22T04:35:37.520Z,92.52
2019-03-22T04:36:37.505Z,92.10
2019-03-22T04:37:37.512Z,92.73
2019-03-22T04:38:37.481Z,93.25
2019-03-22T04:39:37.467Z,93.98
2019-03-22T04:40:37.469Z,93.77
2019-03-22T04:41:37.448Z,93.94
2019-03-22T04:42:37.444Z,93.41
2019-03-22T04:43:37.449Z,92.94
2019-03-22T04:44:37.410Z,93.04
2019-03-22T04:45:37.409Z,92.83
2019-03-22T04:46:37.413Z,92.63
2019-03-22T04:47:37.378Z,92.41
2019-03-22T04:48:37.376Z,92.41
2019-03-22T04:49:37.368Z,92.52
2019-03-22T04:50:37.341Z,92.56
2019-03-22T04:51:37.341Z,92.83
2019-03-22T04:52:37.328Z,92.77
2019-03-22T04:53:37.313Z,93.57
2019-03-22T04:54:37.328Z,93.46
2019-03-22T04:55:37.288Z,93.35
2019-03-22T04:56:37.273Z,93.46
2019-03-22T04:57:37.265Z,93.25
2019-03-22T04:58:37.287Z,93.25
2019-03-22T04:59:37.248Z,93.35
2019-03-22T05:00:37.254Z,93.67
2019-03-22T05:01:37.224Z,92.83
2019-03-22T05:02:37.209Z,92.63
2019-03-22T05:03:37.207Z,92.41
2019-03-22T05:04:37.205Z,92.41
2019-03-22T05:05:37.183Z,92.31
2019-03-22T05:06:37.199Z,92.35
2019-03-22T05:07:37.158Z,92.52
2019-03-22T05:08:37.145Z,92.41
2019-03-22T05:09:37.137Z,92.41
2019-03-22T05:10:37.128Z,92.31
2019-03-22T05:11:37.153Z,92.94
2019-03-22T05:12:37.132Z,93.08
2019-03-22T05:13:37.091Z,92.83
2019-03-22T05:14:37.075Z,92.83
2019-03-22T05:15:37.066Z,92.52
2019-03-22T05:16:37.069Z,92.52
2019-03-22T05:17:37.051Z,92.41
2019-03-22T05:18:37.055Z,92.52
2019-03-22T05:19:37.025Z,92.52
2019-03-22T05:20:37.082Z,92.63
2019-03-22T05:21:37.001Z,92.21
2019-03-22T05:22:37.000Z,92.31
2019-03-22T05:23:36.978Z,92.31
2019-03-22T05:24:37.010Z,92.63
2019-03-22T05:25:36.954Z,92.31
2019-03-22T05:26:36.948Z,92.90
2019-03-22T05:27:36.938Z,92.79
2019-03-22T05:28:36.940Z,92.58
2019-03-22T05:29:38.874Z,93.00
2019-03-22T05:30:36.918Z,92.79
2019-03-22T05:31:36.887Z,92.69
2019-03-22T05:32:36.876Z,92.41
2019-03-22T05:33:36.872Z,92.58
2019-03-22T05:34:36.857Z,92.63
2019-03-22T05:35:36.844Z,92.27
2019-03-22T05:36:36.860Z,92.79
2019-03-22T05:37:36.821Z,92.69
2019-03-22T05:38:36.810Z,92.69
2019-03-22T05:39:36.798Z,93.00
2019-03-22T05:40:36.797Z,93.16
2019-03-22T05:41:36.770Z,93.00
2019-03-22T05:42:36.795Z,93.10
2019-03-22T05:43:36.756Z,93.10
2019-03-22T05:44:36.745Z,93.59
2019-03-22T05:45:36.725Z,93.59
2019-03-22T05:46:36.730Z,93.59
2019-03-22T05:47:36.704Z,93.27
2019-03-22T05:48:36.706Z,93.27
2019-03-22T05:49:36.683Z,92.96
2019-03-22T05:50:36.677Z,92.96
2019-03-22T05:51:36.671Z,93.27
2019-03-22T05:52:36.663Z,93.44
2019-03-22T05:53:36.664Z,93.44
2019-03-22T05:54:36.626Z,93.65
2019-03-22T05:55:36.619Z,93.65
2019-03-22T05:56:36.612Z,93.12
2019-03-22T05:57:36.593Z,93.23
2019-03-22T05:58:36.592Z,93.44
2019-03-22T05:59:42.439Z,92.91
2019-03-22T06:00:37.561Z,93.18
2019-03-22T06:01:36.556Z,93.44
2019-03-22T06:02:36.544Z,93.23
2019-03-22T06:03:36.523Z,93.40
2019-03-22T06:04:36.521Z,93.08
2019-03-22T06:05:36.541Z,93.18
2019-03-22T06:06:36.488Z,93.40
2019-03-22T06:07:37.159Z,93.50
2019-03-22T06:08:36.470Z,93.40
2019-03-22T06:09:36.457Z,93.35
2019-03-22T06:10:36.445Z,93.35
2019-03-22T06:11:36.475Z,93.24
2019-03-22T06:12:36.429Z,93.46
2019-03-22T06:13:36.414Z,93.24
2019-03-22T06:14:36.395Z,93.77
2019-03-22T06:15:36.385Z,93.46
2019-03-22T06:16:36.393Z,94.08
2019-03-22T06:17:36.451Z,94.08
2019-03-22T06:18:36.365Z,94.14
2019-03-22T06:19:36.342Z,94.82
2019-03-22T06:20:36.333Z,94.93
2019-03-22T06:21:36.324Z,95.03
2019-03-22T06:22:36.308Z,95.14
2019-03-22T06:23:36.348Z,95.09
2019-03-22T06:24:36.289Z,95.25
2019-03-22T06:25:36.278Z,95.30
2019-03-22T06:26:36.264Z,95.09
2019-03-22T06:27:36.262Z,95.30
2019-03-22T06:28:36.245Z,95.36
2019-03-22T06:29:36.280Z,95.05
2019-03-22T06:30:36.215Z,94.68
2019-03-22T06:31:36.220Z,95.47
2019-03-22T06:32:36.198Z,95.67
2019-03-22T06:33:36.186Z,96.04
2019-03-22T06:34:36.208Z,95.32
2019-03-22T06:35:36.251Z,95.53
2019-03-22T06:36:36.179Z,95.48
2019-03-22T06:37:36.208Z,95.59
2019-03-22T06:38:36.217Z,95.79
2019-03-22T06:39:36.183Z,95.48
2019-03-22T06:40:36.148Z,95.44
2019-03-22T06:41:36.161Z,95.34
2019-03-22T06:42:36.090Z,95.44
2019-03-22T06:43:36.073Z,95.86
2019-03-22T06:44:36.070Z,95.77
2019-03-22T06:45:36.048Z,95.47
2019-03-22T06:46:36.051Z,95.34
2019-03-22T06:47:36.065Z,93.76
2019-03-22T06:48:36.013Z,91.36
2019-03-22T06:49:36.015Z,89.83
2019-03-22T06:50:35.996Z,87.65
2019-03-22T06:51:35.992Z,85.82
2019-03-22T06:52:35.977Z,84.40
2019-03-22T06:53:35.969Z,82.57
2019-03-22T06:54:35.957Z,81.37
2019-03-22T06:55:35.936Z,78.70
2019-03-22T06:56:35.925Z,75.59
2019-03-22T06:57:35.918Z,72.82
2019-03-22T06:58:35.925Z,73.47
2019-03-22T06:59:35.891Z,72.00
2019-03-22T07:00:35.888Z,71.09
2019-03-22T07:01:35.869Z,67.76
2019-03-22T07:02:35.851Z,64.26
2019-03-22T07:03:35.850Z,65.05
2019-03-22T07:04:35.855Z,64.11
2019-03-22T07:05:35.828Z,62.41
2019-03-22T07:06:35.819Z,61.07
2019-03-22T07:07:35.818Z,60.02
2019-03-22T07:08:35.786Z,59.08
2019-03-22T07:09:35.777Z,59.77
2019-03-22T07:10:35.812Z,60.35
2019-03-22T07:11:35.757Z,58.80
2019-03-22T07:12:35.742Z,56.77
2019-03-22T07:13:35.732Z,58.47
2019-03-22T07:14:35.719Z,57.22
2019-03-22T07:15:35.708Z,57.73
2019-03-22T07:16:35.716Z,56.96
2019-03-22T07:17:36.645Z,55.57
2019-03-22T07:18:35.672Z,55.98
2019-03-22T07:19:35.689Z,55.27
2019-03-22T07:20:35.649Z,55.35
2019-03-22T07:21:35.646Z,54.86
2019-03-22T07:22:35.653Z,54.99
2019-03-22T07:23:35.621Z,56.13
2019-03-22T07:24:35.603Z,56.03
2019-03-22T07:25:35.605Z,56.05
2019-03-22T07:26:35.583Z,56.90
2019-03-22T07:27:35.569Z,57.43
2019-03-22T07:28:35.860Z,57.76
2019-03-22T07:29:35.547Z,58.91
2019-03-22T07:30:35.534Z,59.14
2019-03-22T07:31:35.963Z,59.34
2019-03-22T07:32:35.514Z,60.05
2019-03-22T07:33:35.498Z,59.47
2019-03-22T07:34:35.534Z,59.39
2019-03-22T07:35:35.495Z,59.91
2019-03-22T07:36:35.468Z,59.60
2019-03-22T07:37:35.477Z,59.53
2019-03-22T07:38:35.440Z,59.96
2019-03-22T07:39:35.440Z,61.00
2019-03-22T07:40:35.452Z,62.36
2019-03-22T07:41:35.412Z,61.65
2019-03-22T07:42:35.403Z,62.56
2019-03-22T07:43:35.413Z,62.49
2019-03-22T07:44:35.376Z,63.00
2019-03-22T07:45:35.372Z,63.34
2019-03-22T07:46:35.381Z,63.26
2019-03-22T07:47:35.339Z,62.96
2019-03-22T07:48:35.334Z,62.48
2019-03-22T07:49:35.329Z,61.66
2019-03-22T07:50:35.311Z,61.58
2019-03-22T07:51:35.298Z,64.22
2019-03-22T07:52:35.321Z,65.03
2019-03-22T07:53:35.277Z,65.54
2019-03-22T07:54:35.262Z,66.46
2019-03-22T07:55:35.263Z,67.51
2019-03-22T07:56:35.241Z,67.41
2019-03-22T07:57:35.246Z,67.30
2019-03-22T07:58:35.227Z,67.71
2019-03-22T07:59:35.216Z,67.71
2019-03-22T08:00:35.197Z,67.41
2019-03-22T08:01:35.191Z,67.61
2019-03-22T08:02:35.173Z,68.63
2019-03-22T08:03:35.204Z,69.32
2019-03-22T08:04:35.158Z,69.21
2019-03-22T08:05:35.135Z,68.70
2019-03-22T08:06:35.129Z,67.48
2019-03-22T08:07:35.127Z,66.36
2019-03-22T08:08:35.650Z,66.97
2019-03-22T08:09:35.228Z,64.90
2019-03-22T08:10:35.095Z,65.00
2019-03-22T08:11:35.076Z,65.61
2019-03-22T08:12:35.055Z,66.22
2019-03-22T08:13:35.057Z,65.92
2019-03-22T08:14:35.047Z,65.61
2019-03-22T08:15:35.056Z,65.31
2019-03-22T08:16:35.024Z,63.44
2019-03-22T08:17:35.007Z,65.81
2019-03-22T08:18:34.984Z,64.87
2019-03-22T08:19:34.995Z,64.25
2019-03-22T08:20:34.970Z,63.75
2019-03-22T08:21:34.995Z,64.73
2019-03-22T08:22:34.943Z,65.65
2019-03-22T08:23:34.940Z,65.14
2019-03-22T08:24:34.925Z,64.43
2019-03-22T08:25:34.953Z,61.98
2019-03-22T08:26:34.921Z,62.49
2019-03-22T08:27:34.916Z,62.80
2019-03-22T08:28:34.873Z,62.59
2019-03-22T08:29:34.862Z,63.41
2019-03-22T08:30:43.010Z,62.18
2019-03-22T08:31:35.874Z,62.59
2019-03-22T08:32:34.859Z,62.90
2019-03-22T08:33:34.869Z,64.12
2019-03-22T08:34:34.806Z,65.28
2019-03-22T08:35:34.794Z,64.22
2019-03-22T08:36:34.791Z,65.17
2019-03-22T08:37:34.823Z,64.15
2019-03-22T08:38:34.766Z,63.03
2019-03-22T08:39:34.789Z,64.15
2019-03-22T08:40:34.753Z,64.36
2019-03-22T08:41:34.730Z,64.79
2019-03-22T08:42:34.757Z,64.49
2019-03-22T08:43:34.723Z,63.37
2019-03-22T08:44:34.686Z,64.18
2019-03-22T08:45:34.811Z,63.98
2019-03-22T08:46:34.684Z,64.08
2019-03-22T08:47:34.849Z,63.16
2019-03-22T08:48:34.685Z,63.06
2019-03-22T08:49:34.856Z,63.67
2019-03-22T08:50:34.641Z,64.08
2019-03-22T08:51:34.660Z,64.18
2019-03-22T08:52:34.604Z,63.37
2019-03-22T08:53:34.594Z,62.85
2019-03-22T08:54:34.581Z,63.26
2019-03-22T08:55:34.574Z,63.34
2019-03-22T08:56:36.014Z,62.21
2019-03-22T08:57:34.581Z,62.52
2019-03-22T08:58:34.604Z,61.80
2019-03-22T08:59:34.524Z,62.82
2019-03-22T09:00:39.652Z,63.03
2019-03-22T09:01:35.498Z,62.01
2019-03-22T09:02:34.517Z,63.10
2019-03-22T09:03:34.528Z,63.41
2019-03-22T09:04:34.501Z,63.92
2019-03-22T09:05:34.459Z,63.31
2019-03-22T09:06:34.445Z,63.41
2019-03-22T09:07:34.475Z,63.41
2019-03-22T09:08:34.421Z,62.80
2019-03-22T09:09:41.446Z,63.18
2019-03-22T09:10:35.410Z,63.28
2019-03-22T09:11:34.383Z,63.48
2019-03-22T09:12:34.376Z,63.58
2019-03-22T09:13:34.419Z,63.38
2019-03-22T09:14:36.231Z,63.18
2019-03-22T09:15:40.988Z,62.05
2019-03-22T09:16:35.348Z,61.85
2019-03-22T09:17:34.323Z,62.36
2019-03-22T09:18:34.304Z,62.77
2019-03-22T09:19:34.322Z,63.24
2019-03-22T09:20:34.323Z,63.65
2019-03-22T09:21:34.348Z,62.84
2019-03-22T09:22:34.342Z,62.84
2019-03-22T09:23:34.254Z,62.33
2019-03-22T09:24:39.302Z,62.74
2019-03-22T09:25:34.257Z,62.92
2019-03-22T09:26:46.881Z,62.94
2019-03-22T09:27:36.542Z,62.92
2019-03-22T09:28:34.188Z,63.15
2019-03-22T09:29:34.190Z,63.35
2019-03-22T09:30:34.184Z,62.84
2019-03-22T09:31:34.174Z,63.15
2019-03-22T09:32:34.224Z,63.22
2019-03-22T09:33:34.135Z,62.81
2019-03-22T09:34:34.329Z,63.42
2019-03-22T09:35:34.117Z,63.53
2019-03-22T09:36:34.102Z,63.62
2019-03-22T09:37:34.111Z,63.93
2019-03-22T09:38:34.188Z,63.90
2019-03-22T09:39:34.071Z,63.29
2019-03-22T09:40:34.085Z,63.49
2019-03-22T09:41:34.079Z,64.11
2019-03-22T09:42:34.069Z,62.45
2019-03-22T09:43:34.015Z,63.06
2019-03-22T09:44:43.091Z,62.65
2019-03-22T09:45:34.993Z,62.21
2019-03-22T09:46:33.987Z,61.91
2019-03-22T09:47:34.037Z,61.30
2019-03-22T09:48:33.965Z,60.59
2019-03-22T09:49:34.035Z,61.20
2019-03-22T09:50:33.993Z,60.76
2019-03-22T09:51:33.938Z,60.36
2019-03-22T09:52:33.960Z,59.03
2019-03-22T09:53:33.910Z,60.05
2019-03-22T09:54:33.886Z,60.63
2019-03-22T09:55:33.877Z,59.31
2019-03-22T09:56:46.033Z,59.11
2019-03-22T09:57:34.857Z,58.80
2019-03-22T09:58:33.841Z,59.21
2019-03-22T09:59:33.860Z,59.31
2019-03-22T10:00:33.849Z,59.41
2019-03-22T10:01:33.822Z,59.62
2019-03-22T10:02:34.743Z,58.80
2019-03-22T10:03:33.794Z,59.89
2019-03-22T10:04:33.781Z,60.20
2019-03-22T10:05:33.800Z,59.99
2019-03-22T10:06:33.765Z,59.99
2019-03-22T10:07:34.692Z,58.98
2019-03-22T10:08:33.758Z,60.30
2019-03-22T10:09:33.738Z,60.71
2019-03-22T10:10:33.770Z,58.98
2019-03-22T10:11:33.699Z,59.18
2019-03-22T10:12:33.692Z,60.58
2019-03-22T10:13:33.787Z,61.29
2019-03-22T10:14:33.687Z,60.37
2019-03-22T10:15:33.705Z,60.17
2019-03-22T10:16:33.652Z,60.27
2019-03-22T10:17:33.630Z,59.66
2019-03-22T10:18:36.655Z,59.77
2019-03-22T10:19:33.655Z,59.26
2019-03-22T10:20:33.599Z,59.23
2019-03-22T10:21:33.591Z,59.56
2019-03-22T10:22:33.593Z,59.03
2019-03-22T10:23:33.568Z,58.85
2019-03-22T10:24:33.586Z,58.92
2019-03-22T10:25:33.658Z,59.97
2019-03-22T10:26:33.554Z,60.44
2019-03-22T10:27:33.514Z,60.14
2019-03-22T10:28:33.519Z,58.62
2019-03-22T10:29:33.497Z,60.24
2019-03-22T10:30:33.492Z,60.75
2019-03-22T10:31:37.328Z,60.44
2019-03-22T10:32:33.473Z,60.93
2019-03-22T10:33:33.448Z,59.33
2019-03-22T10:34:33.471Z,59.10
2019-03-22T10:35:33.433Z,57.58
2019-03-22T10:36:33.416Z,58.09
2019-03-22T10:37:33.445Z,58.18
2019-03-22T10:38:33.432Z,57.28
2019-03-22T10:39:33.406Z,58.09
2019-03-22T10:40:33.414Z,59.20
2019-03-22T10:41:33.383Z,57.58
2019-03-22T10:42:33.374Z,57.86
2019-03-22T10:43:33.412Z,58.97
2019-03-22T10:44:33.373Z,58.06
2019-03-22T10:45:33.314Z,59.17
2019-03-22T10:46:33.310Z,57.02
2019-03-22T10:47:33.315Z,57.62
2019-03-22T10:48:33.273Z,56.92
2019-03-22T10:49:33.314Z,56.01
2019-03-22T10:50:33.255Z,56.95
2019-03-22T10:51:33.238Z,56.41
2019-03-22T10:52:33.244Z,57.53
2019-03-22T10:53:33.260Z,60.77
2019-03-22T10:54:33.305Z,61.68
2019-03-22T10:55:35.563Z,63.50
2019-03-22T10:56:33.183Z,59.45
2019-03-22T10:57:33.167Z,60.26
2019-03-22T10:58:33.175Z,61.17
2019-03-22T10:59:33.150Z,61.68
2019-03-22T11:00:33.183Z,61.78
2019-03-22T11:01:46.449Z,61.98
2019-03-22T11:02:34.115Z,61.91
2019-03-22T11:03:33.127Z,61.58
2019-03-22T11:04:33.122Z,60.77
2019-03-22T11:05:33.087Z,57.83
2019-03-22T11:06:33.096Z,59.25
2019-03-22T11:07:33.053Z,58.92
2019-03-22T11:08:33.049Z,60.33
2019-03-22T11:09:33.041Z,59.52
2019-03-22T11:10:33.039Z,60.63
2019-03-22T11:11:33.018Z,62.26
2019-03-22T11:12:33.038Z,58.76
2019-03-22T11:13:32.993Z,58.15
2019-03-22T11:14:32.977Z,57.75
2019-03-22T11:15:32.970Z,59.34
2019-03-22T11:16:32.964Z,60.05
2019-03-22T11:17:32.979Z,58.93
2019-03-22T11:18:37.312Z,57.01
2019-03-22T11:19:32.937Z,58.33
2019-03-22T11:20:32.922Z,59.61
2019-03-22T11:21:32.908Z,59.91
2019-03-22T11:22:32.886Z,59.41
2019-03-22T11:23:32.878Z,59.41
2019-03-22T11:24:32.894Z,57.31
2019-03-22T11:25:32.901Z,61.05
2019-03-22T11:26:32.855Z,60.35
2019-03-22T11:27:32.834Z,58.93
2019-03-22T11:28:32.823Z,57.69
2019-03-22T11:29:32.806Z,60.12
2019-03-22T11:30:32.830Z,57.46
2019-03-22T11:31:39.803Z,57.16
2019-03-22T11:32:33.783Z,57.43
2019-03-22T11:33:32.763Z,59.25
2019-03-22T11:34:32.755Z,58.95
2019-03-22T11:35:32.735Z,57.64
2019-03-22T11:36:33.243Z,57.54
2019-03-22T11:37:32.745Z,58.37
2019-03-22T11:38:32.705Z,58.87
2019-03-22T11:39:32.694Z,58.78
2019-03-22T11:40:32.679Z,61.07
2019-03-22T11:41:32.703Z,59.38
2019-03-22T11:42:32.682Z,61.27
2019-03-22T11:43:32.664Z,57.74
2019-03-22T11:44:32.639Z,59.08
2019-03-22T11:45:32.631Z,59.48
2019-03-22T11:46:32.611Z,57.56
2019-03-22T11:47:32.606Z,59.48
2019-03-22T11:48:32.630Z,58.98
2019-03-22T11:49:32.602Z,59.58
2019-03-22T11:50:32.572Z,60.89
2019-03-22T11:51:32.556Z,62.01
2019-03-22T11:52:32.548Z,58.98
2019-03-22T11:53:32.534Z,59.00
2019-03-22T11:54:32.534Z,59.00
2019-03-22T11:55:32.542Z,59.91
2019-03-22T11:56:32.495Z,60.12
2019-03-22T11:57:32.488Z,59.61
2019-03-22T11:58:32.488Z,62.21
2019-03-22T11:59:32.503Z,58.87
2019-03-22T12:00:32.460Z,58.04
2019-03-22T12:01:32.465Z,60.36
2019-03-22T12:02:32.432Z,59.83
2019-03-22T12:03:32.419Z,57.21
2019-03-22T12:04:32.408Z,56.20
2019-03-22T12:05:40.076Z,55.46
2019-03-22T12:06:33.387Z,57.08
2019-03-22T12:07:32.398Z,56.57
2019-03-22T12:08:32.366Z,55.84
2019-03-22T12:09:32.350Z,55.54
2019-03-22T12:10:32.340Z,56.62
2019-03-22T12:11:32.370Z,54.30
2019-03-22T12:12:32.320Z,53.90
2019-03-22T12:13:32.337Z,53.80
2019-03-22T12:14:32.300Z,52.37
2019-03-22T12:15:32.286Z,51.34
2019-03-22T12:16:32.277Z,51.54
2019-03-22T12:17:32.286Z,50.02
2019-03-22T12:18:32.248Z,50.63
2019-03-22T12:19:33.241Z,48.79
2019-03-22T12:20:32.226Z,50.71
2019-03-22T12:21:32.213Z,50.31
2019-03-22T12:22:32.205Z,50.20
2019-03-22T12:23:32.208Z,49.57
2019-03-22T12:24:32.210Z,49.88
2019-03-22T12:25:32.170Z,50.18
2019-03-22T12:26:32.154Z,49.88
2019-03-22T12:27:36.549Z,49.48
2019-03-22T12:28:32.133Z,49.27
2019-03-22T12:29:34.290Z,50.05
2019-03-22T12:30:32.117Z,45.79
2019-03-22T12:31:32.122Z,48.01
2019-03-22T12:32:32.487Z,50.13
2019-03-22T12:33:32.094Z,50.20
2019-03-22T12:34:32.067Z,49.50
2019-03-22T12:35:32.082Z,50.38
2019-03-22T12:36:32.048Z,48.57
2019-03-22T12:37:32.062Z,49.05
2019-03-22T12:38:32.024Z,47.24
2019-03-22T12:39:32.008Z,47.06
2019-03-22T12:40:31.996Z,45.25
2019-03-22T12:41:32.014Z,46.60
2019-03-22T12:42:31.979Z,48.21
2019-03-22T12:43:33.446Z,46.50
2019-03-22T12:44:31.946Z,46.73
2019-03-22T12:45:31.941Z,46.95
2019-03-22T12:46:31.930Z,50.07
2019-03-22T12:47:31.954Z,49.65
2019-03-22T12:48:31.907Z,48.82
2019-03-22T12:49:32.043Z,52.74
2019-03-22T12:50:31.891Z,52.62
2019-03-22T12:51:31.874Z,50.68
2019-03-22T12:52:31.866Z,50.05